Time,TemperatureF,DewpointF,PressureIn,WindDirection,WindDirectionDegrees,WindSpeedMPH,WindSpeedGustMPH,Humidity,HourlyPrecipIn,Conditions,Clouds,dailyrainin,SoftwareType,DateUTC
2013-03-19 00:09:00,37.5,34.0,29.82,West,281,9.0,16.0,86,0.00,,,0.00,weatherlink.com 1.10,2013-03-19 04:09:00,
2013-03-19 00:24:00,36.3,32.0,29.83,NW,315,15.0,24.0,84,0.00,,,0.00,weatherlink.com 1.10,2013-03-19 04:24:00,
2013-03-19 00:39:00,33.6,29.0,29.84,WNW,302,14.0,20.0,84,0.00,,,0.00,weatherlink.com 1.10,2013-03-19 04:39:00,
2013-03-19 00:54:00,32.5,28.0,29.84,NW,308,16.0,18.0,83,0.00,,,0.00,weatherlink.com 1.10,2013-03-19 04:54:00,
2013-03-19 01:09:00,31.8,28.0,29.84,NW,305,11.0,18.0,84,0.00,,,0.00,weatherlink.com 1.10,2013-03-19 05:09:00,
2013-03-19 01:24:00,31.3,27.0,29.84,WNW,295,6.0,15.0,84,0.00,,,0.00,weatherlink.com 1.10,2013-03-19 05:24:00,
2013-03-19 01:39:00,30.9,27.0,29.85,WNW,290,10.0,12.0,85,0.00,,,0.00,weatherlink.com 1.10,2013-03-19 05:39:00,
2013-03-19 01:54:00,30.4,24.0,29.85,NW,314,19.0,27.0,77,0.00,,,0.00,weatherlink.com 1.10,2013-03-19 05:54:00,
2013-03-19 02:09:00,30.0,25.0,29.86,WNW,303,13.0,23.0,80,0.00,,,0.00,weatherlink.com 1.10,2013-03-19 06:09:00,
2013-03-19 02:24:00,29.7,23.0,29.87,WNW,294,17.0,28.0,77,0.00,,,0.00,weatherlink.com 1.10,2013-03-19 06:24:00,
2013-03-19 02:39:00,28.6,23.0,29.88,WNW,287,8.0,21.0,79,0.00,,,0.00,weatherlink.com 1.10,2013-03-19 06:39:00,
2013-03-19 02:54:00,28.1,21.0,29.89,WNW,288,16.0,27.0,76,0.00,,,0.00,weatherlink.com 1.10,2013-03-19 06:54:00,
2013-03-19 03:09:00,27.4,20.0,29.89,NW,308,18.0,32.0,74,0.00,,,0.00,weatherlink.com 1.10,2013-03-19 07:09:00,
2013-03-19 03:24:00,26.9,20.0,29.90,NW,323,17.0,30.0,74,0.00,,,0.00,weatherlink.com 1.10,2013-03-19 07:24:00,
2013-03-19 03:39:00,26.6,19.0,29.90,NW,314,22.0,25.0,74,0.00,,,0.00,weatherlink.com 1.10,2013-03-19 07:39:00,
2013-03-19 03:54:00,26.5,20.0,29.90,NW,311,9.0,22.0,75,0.00,,,0.00,weatherlink.com 1.10,2013-03-19 07:54:00,
2013-03-19 04:09:00,26.3,20.0,29.91,WNW,288,9.0,21.0,76,0.00,,,0.00,weatherlink.com 1.10,2013-03-19 08:09:00,
2013-03-19 04:25:00,26.2,20.0,29.90,WNW,293,13.0,16.0,77,0.00,,,0.00,weatherlink.com 1.10,2013-03-19 08:25:00,
2013-03-19 04:40:00,25.9,19.0,29.90,WNW,288,11.0,20.0,74,0.00,,,0.00,weatherlink.com 1.10,2013-03-19 08:40:00,
2013-03-19 04:55:00,25.7,18.0,29.90,West,270,12.0,17.0,74,0.00,,,0.00,weatherlink.com 1.10,2013-03-19 08:55:00,
2013-03-19 05:10:00,25.5,18.0,29.90,West,280,10.0,21.0,74,0.00,,,0.00,weatherlink.com 1.10,2013-03-19 09:10:00,
2013-03-19 05:25:00,25.2,17.0,29.91,WNW,295,22.0,23.0,71,0.00,,,0.00,weatherlink.com 1.10,2013-03-19 09:25:00,
2013-03-19 05:40:00,24.9,18.0,29.92,WNW,283,13.0,20.0,74,0.00,,,0.00,weatherlink.com 1.10,2013-03-19 09:40:00,
2013-03-19 05:55:00,24.8,18.0,29.93,West,280,10.0,21.0,74,0.00,,,0.00,weatherlink.com 1.10,2013-03-19 09:55:00,
2013-03-19 06:10:00,25.1,18.0,29.93,West,269,15.0,20.0,75,0.00,,,0.00,weatherlink.com 1.10,2013-03-19 10:10:00,
2013-03-19 06:25:00,25.2,18.0,29.92,West,263,12.0,18.0,74,0.00,,,0.00,weatherlink.com 1.10,2013-03-19 10:25:00,
2013-03-19 06:40:00,25.3,18.0,29.93,WNW,283,15.0,24.0,73,0.00,,,0.00,weatherlink.com 1.10,2013-03-19 10:40:00,
2013-03-19 06:55:00,25.4,18.0,29.93,West,274,13.0,28.0,72,0.00,,,0.00,weatherlink.com 1.10,2013-03-19 10:55:00,
2013-03-19 07:10:00,25.4,18.0,29.93,WNW,293,13.0,27.0,73,0.00,,,0.00,weatherlink.com 1.10,2013-03-19 11:10:00,
2013-03-19 07:25:00,25.4,18.0,29.93,West,276,16.0,26.0,72,0.00,,,0.00,weatherlink.com 1.10,2013-03-19 11:25:00,
2013-03-19 07:40:00,25.5,18.0,29.93,WNW,290,17.0,24.0,72,0.00,,,0.00,weatherlink.com 1.10,2013-03-19 11:40:00,
2013-03-19 07:55:00,25.7,18.0,29.94,West,277,17.0,24.0,73,0.00,,,0.00,weatherlink.com 1.10,2013-03-19 11:55:00,
2013-03-19 08:10:00,25.7,18.0,29.93,WNW,290,10.0,23.0,74,0.00,,,0.00,weatherlink.com 1.10,2013-03-19 12:10:00,
2013-03-19 08:25:00,25.5,17.0,29.94,WNW,299,22.0,30.0,71,0.00,,,0.00,weatherlink.com 1.10,2013-03-19 12:25:00,
2013-03-19 08:40:00,25.4,17.0,29.94,WNW,295,20.0,30.0,70,0.00,,,0.00,weatherlink.com 1.10,2013-03-19 12:40:00,
2013-03-19 08:55:00,25.3,17.0,29.95,NW,307,21.0,30.0,70,0.00,,,0.00,weatherlink.com 1.10,2013-03-19 12:55:00,
2013-03-19 09:10:00,25.7,17.0,29.95,West,276,28.0,28.0,70,0.00,,,0.00,weatherlink.com 1.10,2013-03-19 13:10:00,
2013-03-19 09:25:00,26.0,18.0,29.95,West,278,9.0,22.0,72,0.00,,,0.00,weatherlink.com 1.10,2013-03-19 13:25:00,
2013-03-19 09:40:00,26.3,17.0,29.95,WNW,294,17.0,25.0,69,0.00,,,0.00,weatherlink.com 1.10,2013-03-19 13:40:00,
2013-03-19 09:55:00,26.3,17.0,29.96,NW,305,21.0,28.0,68,0.00,,,0.00,weatherlink.com 1.10,2013-03-19 13:55:00,
2013-03-19 10:10:00,26.4,17.0,29.97,WNW,295,20.0,29.0,67,0.00,,,0.00,weatherlink.com 1.10,2013-03-19 14:10:00,
2013-03-19 10:25:00,26.6,17.0,29.97,West,269,18.0,31.0,66,0.00,,,0.00,weatherlink.com 1.10,2013-03-19 14:25:00,
2013-03-19 10:40:00,27.1,17.0,29.98,WSW,243,14.0,32.0,66,0.00,,,0.00,weatherlink.com 1.10,2013-03-19 14:40:00,
2013-03-19 10:55:00,27.6,17.0,29.98,WSW,258,15.0,27.0,64,0.00,,,0.00,weatherlink.com 1.10,2013-03-19 14:55:00,
2013-03-19 11:10:00,27.8,16.0,29.98,WNW,288,22.0,31.0,61,0.00,,,0.00,weatherlink.com 1.10,2013-03-19 15:10:00,
2013-03-19 11:25:00,28.4,18.0,29.98,WNW,292,17.0,27.0,64,0.00,,,0.00,weatherlink.com 1.10,2013-03-19 15:25:00,
2013-03-19 11:40:00,29.0,17.0,29.98,WNW,299,16.0,22.0,62,0.00,,,0.00,weatherlink.com 1.10,2013-03-19 15:40:00,
2013-03-19 11:55:00,29.0,17.0,29.98,WNW,284,19.0,32.0,60,0.00,,,0.00,weatherlink.com 1.10,2013-03-19 15:55:00,
2013-03-19 12:10:00,29.6,16.0,29.99,WNW,300,14.0,30.0,58,0.00,,,0.00,weatherlink.com 1.10,2013-03-19 16:10:00,
2013-03-19 12:26:00,30.2,17.0,30.00,WNW,284,15.0,31.0,59,0.00,,,0.00,weatherlink.com 1.10,2013-03-19 16:26:00,
2013-03-19 12:40:00,30.5,18.0,30.00,WNW,288,15.0,30.0,60,0.00,,,0.00,weatherlink.com 1.10,2013-03-19 16:40:00,
2013-03-19 12:56:00,31.2,19.0,30.01,West,279,19.0,28.0,60,0.00,,,0.00,weatherlink.com 1.10,2013-03-19 16:56:00,
2013-03-19 13:11:00,31.9,20.0,30.01,WNW,288,18.0,27.0,62,0.00,,,0.00,weatherlink.com 1.10,2013-03-19 17:11:00,
2013-03-19 13:26:00,31.8,18.0,30.01,NW,304,18.0,34.0,56,0.00,,,0.00,weatherlink.com 1.10,2013-03-19 17:26:00,
2013-03-19 13:41:00,32.5,19.0,30.03,WNW,301,20.0,35.0,59,0.00,,,0.00,weatherlink.com 1.10,2013-03-19 17:41:00,
2013-03-19 13:56:00,33.2,21.0,30.03,WNW,284,14.0,34.0,60,0.00,,,0.00,weatherlink.com 1.10,2013-03-19 17:56:00,
2013-03-19 14:11:00,33.4,19.0,30.04,WNW,283,26.0,36.0,57,0.00,,,0.00,weatherlink.com 1.10,2013-03-19 18:11:00,
2013-03-19 14:26:00,33.5,19.0,30.04,WNW,295,20.0,34.0,56,0.00,,,0.00,weatherlink.com 1.10,2013-03-19 18:26:00,
2013-03-19 16:11:00,36.9,20.0,30.04,WNW,298,15.0,29.0,50,0.00,,,0.00,weatherlink.com 1.10,2013-03-19 20:11:00,
2013-03-19 16:26:00,37.1,18.0,30.05,WNW,298,17.0,29.0,46,0.00,,,0.00,weatherlink.com 1.10,2013-03-19 20:26:00,
2013-03-19 16:41:00,38.2,21.0,30.05,WNW,290,21.0,31.0,50,0.00,,,0.00,weatherlink.com 1.10,2013-03-19 20:41:00,
2013-03-19 16:56:00,37.9,19.0,30.05,NW,304,16.0,35.0,46,0.00,,,0.00,weatherlink.com 1.10,2013-03-19 20:56:00,
2013-03-19 17:11:00,38.5,19.0,30.06,WNW,294,15.0,28.0,46,0.00,,,0.00,weatherlink.com 1.10,2013-03-19 21:11:00,
2013-03-19 17:26:00,38.5,18.0,30.06,WNW,293,21.0,31.0,43,0.00,,,0.00,weatherlink.com 1.10,2013-03-19 21:26:00,
2013-03-19 17:41:00,38.8,20.0,30.06,WNW,291,20.0,30.0,47,0.00,,,0.00,weatherlink.com 1.10,2013-03-19 21:41:00,
2013-03-19 18:11:00,38.9,18.0,30.06,WNW,302,13.0,26.0,43,0.00,,,0.00,weatherlink.com 1.10,2013-03-19 22:11:00,
2013-03-19 18:26:00,38.8,17.0,30.07,West,274,9.0,26.0,42,0.00,,,0.00,weatherlink.com 1.10,2013-03-19 22:26:00,
2013-03-19 18:41:00,38.7,17.0,30.08,WNW,298,14.0,26.0,42,0.00,,,0.00,weatherlink.com 1.10,2013-03-19 22:41:00,
2013-03-19 19:11:00,38.2,17.0,30.08,WNW,293,12.0,22.0,42,0.00,,,0.00,weatherlink.com 1.10,2013-03-19 23:11:00,
2013-03-19 19:26:00,37.3,18.0,30.08,WNW,294,13.0,24.0,45,0.00,,,0.00,weatherlink.com 1.10,2013-03-19 23:26:00,
2013-03-19 19:42:00,36.7,17.0,30.08,WNW,301,12.0,22.0,44,0.00,,,0.00,weatherlink.com 1.10,2013-03-19 23:42:00,
2013-03-19 19:56:00,36.4,17.0,30.08,WNW,286,12.0,22.0,46,0.00,,,0.00,weatherlink.com 1.10,2013-03-19 23:56:00,
2013-03-19 20:12:00,35.7,18.0,30.09,WNW,284,9.0,16.0,49,0.00,,,0.00,weatherlink.com 1.10,2013-03-20 00:12:00,
2013-03-19 20:26:00,35.8,16.0,30.09,WNW,297,15.0,21.0,45,0.00,,,0.00,weatherlink.com 1.10,2013-03-20 00:26:00,
2013-03-19 20:42:00,35.2,17.0,30.09,WNW,301,8.0,14.0,48,0.00,,,0.00,weatherlink.com 1.10,2013-03-20 00:42:00,
2013-03-19 20:56:00,34.8,17.0,30.10,WNW,298,10.0,18.0,49,0.00,,,0.00,weatherlink.com 1.10,2013-03-20 00:56:00,
2013-03-19 21:12:00,35.1,18.0,30.11,WNW,301,12.0,16.0,49,0.00,,,0.00,weatherlink.com 1.10,2013-03-20 01:12:00,
2013-03-19 21:27:00,34.7,18.0,30.11,West,277,9.0,13.0,51,0.00,,,0.00,weatherlink.com 1.10,2013-03-20 01:27:00,
2013-03-19 21:42:00,34.5,18.0,30.11,WNW,291,10.0,14.0,52,0.00,,,0.00,weatherlink.com 1.10,2013-03-20 01:42:00,
2013-03-19 21:57:00,34.2,19.0,30.11,WNW,287,12.0,15.0,54,0.00,,,0.00,weatherlink.com 1.10,2013-03-20 01:57:00,
2013-03-19 22:12:00,34.1,19.0,30.11,West,274,12.0,16.0,54,0.00,,,0.00,weatherlink.com 1.10,2013-03-20 02:12:00,
2013-03-19 22:42:00,33.6,18.0,30.11,WNW,298,5.0,16.0,53,0.00,,,0.00,weatherlink.com 1.10,2013-03-20 02:42:00,
2013-03-19 22:57:00,33.3,19.0,30.11,West,281,7.0,12.0,55,0.00,,,0.00,weatherlink.com 1.10,2013-03-20 02:57:00,
2013-03-19 23:13:00,33.1,18.0,30.11,West,266,7.0,13.0,55,0.00,,,0.00,weatherlink.com 1.10,2013-03-20 03:13:00,
2013-03-19 23:27:00,33.0,19.0,30.11,WNW,282,8.0,14.0,56,0.00,,,0.00,weatherlink.com 1.10,2013-03-20 03:27:00,
2013-03-19 23:42:00,32.6,19.0,30.11,West,280,8.0,11.0,57,0.00,,,0.00,weatherlink.com 1.10,2013-03-20 03:42:00,
2013-03-19 23:57:00,32.2,19.0,30.11,WNW,284,7.0,11.0,58,0.00,,,0.00,weatherlink.com 1.10,2013-03-20 03:57:00,